Logo AVAMET
Benvolgut visitant, si us plau, ingressa Recuperar contrasenya

Xiva Calicanto

Dades diàries. Acumulats / Últims 30 dies disponibles

Data Temperatura (°C) Humitat rel. (%) Pressió rel. (hPa) Vent (km/h) Precipitació
Mínima Mitjana Màxima Amplitud
tèrmica
Mínima Mitjana Màxima Mínima Mitjana Màxima Predom. Mitjana Ràfega
màxima
Total
(mm)
Índex-n
Mínima Mitjana Màxima Mínima Mitjana Màxima n
0 a 1
P0 max
mm 5'
Dades mensuals acumulades fins l'últim dia disponible
05/2019 10,6 13,9 19,9 18,1 18,8 23,3 31,1 20,5 29 67 96 1.001 1.013 1.024   4,7 57,9 10,5
Dades anuals acumulades fins l'últim dia disponible
2019 3,2 10,2 19,9 14,1 11,4 19,2 31,1 27,9 11 60 97 992 1.018 1.035   6,1 74,0 163,8
Últims 30 dies disponibles
24-05-2019 15,3     16,6     18,8 3,5 73 87 95 1.012 1.014 1.015 E 2,6 19,3 3,7
23-05-2019 15,3     20,2     27,7 12,4 40 65 86 1.013 1.015 1.018 ENE 2,6 20,9 0,0
22-05-2019 12,9     18,3     24,6 11,7 51 72 90 1.016 1.017 1.018 SE 3,4 22,5 0,0
21-05-2019 15,0     17,3     23,5 8,5 56 76 90 1.013 1.014 1.016 SE 3,3 30,6 1,7
20-05-2019 13,4     18,2     23,1 9,7 35 56 83 1.010 1.011 1.013 SE 3,9 22,5 0,0
19-05-2019 11,9     17,4     23,4 11,5 29 54 85 1.008 1.009 1.012 SSO 5,9 46,7 0,0
18-05-2019 12,9     16,0     19,8 6,9 48 60 81 1.007 1.008 1.010 SE 3,2 20,9 0,0
17-05-2019 14,2     18,7     22,7 8,5 34 50 85 1.001 1.004 1.009 ONO 14,9 57,9 0,0
16-05-2019 15,3     18,2     23,0 7,7 56 72 87 1.004 1.009 1.014 ESE 4,1 19,3 0,0
15-05-2019 14,2     18,4     24,1 9,9 44 66 83 1.010 1.011 1.015 E 5,6 29,0 0,0
14-05-2019 13,8     19,2     24,9 11,1 41 65 91 1.012 1.017 1.021 SE 3,2 22,5 0,0
13-05-2019 14,6     18,7     23,9 9,3 31 65 92 1.017 1.019 1.020 ESE 3,6 22,5 0,0
12-05-2019 14,6     18,9     23,2 8,6 45 66 82 1.018 1.021 1.024 ESE 2,8 24,1 0,0
11-05-2019 16,8     21,2     26,1 9,3 42 66 86 1.013 1.017 1.023 ESE 3,6 20,9 0,0
10-05-2019 19,9     25,3     31,1 11,2 29 50 70 1.010 1.011 1.013 OSO 11,4 37,0 0,0
09-05-2019 18,1     22,2     27,9 9,8 32 52 67 1.009 1.011 1.013 OSO 9,0 46,7 0,0
08-05-2019 14,5     20,3     26,9 12,4 41 66 95 1.008 1.011 1.014 SSO 8,6 51,5 0,0
07-05-2019 11,2     16,8     22,3 11,1 66 81 92 1.013 1.016 1.018 E 2,0 20,9 0,0
06-05-2019 10,9     15,1     19,5 8,6 55 75 90 1.016 1.017 1.019 ESE 4,0 20,9 0,0
05-05-2019 12,5     15,9     20,1 7,6 34 60 86 1.012 1.014 1.017 SSE 4,1 25,7 0,0
04-05-2019 10,7     15,2     22,3 11,6 38 63 89 1.009 1.012 1.013 SSE 3,9 20,9 0,0
03-05-2019 10,6     13,8     19,1 8,5 59 81 89 1.010 1.012 1.014 SE 2,8 20,9 2,0 0,23 0,30
02-05-2019 13,4     15,8     20,3 6,9 54 82 96 1.013 1.014 1.016 ESE 2,2 16,1 0,7
01-05-2019 12,2     15,5     20,3 8,1 61 84 95 1.012 1.014 1.016 E 2,4 20,9 2,4 0,18 0,40
30-04-2019 11,9     16,0     20,6 8,7 66 82 94 1.015 1.016 1.018 ENE 3,1 20,9 0,2
29-04-2019 11,7     15,0     19,7 8,0 65 83 93 1.016 1.018 1.020 ENE 2,4 19,3 0,4
28-04-2019 12,4     16,8     21,9 9,5 47 63 90 1.019 1.021 1.024 ESE 3,9 20,9 0,0
27-04-2019 13,3     17,6     22,2 8,9 35 52 76 1.022 1.024 1.026 SSE 3,4 20,9 0,0
26-04-2019 11,3     16,1     22,9 11,6 36 55 68 1.017 1.020 1.024 SSO 7,7 35,4 0,0
25-04-2019 13,8     16,3     20,2 6,4 39 60 76 1.008 1.011 1.017 SO 9,4 45,1 0,0
Últims 13 mesos disponibles
04/2019 8,4 11,2 13,8 14,9 14,0 19,5 28,8 20,4 33 65 95 999 1.012 1.024 SSO 7,2 51,5 129,3
03/2019 7,7 10,4 15,7 14,7 11,4 20,1 27,7 20,0 32 54 90 1.009 1.022 1.029 SSE 5,0 74,0 23,8
02/2019 4,8 8,3 14,4 12,4 11,9 18,0 26,3 21,5 36 61 79 994 1.024 1.033 SSE 5,5 74,0 0,2
01/2019 3,2 7,6 11,5 11,4 11,6 16,1 20,7 17,5 34 54 75 1.001 1.018 1.030 SO 7,8 61,2 0,0
12/2018 5,9 9,9 13,9 13,3 14,4 17,8 22,8 16,9 40 65 85 1.008 1.024 1.030 SO 7,2 56,3 11,1
11/2018 8,1 11,7 15,3 14,2 13,6 17,7 24,1 16,0 50 72 96 1.001 1.014 1.023 SSO 6,6 70,8 114,4
10/2018 6,7 15,1 19,3 18,1 12,8 22,5 29,5 22,8 46 71 91 999 1.013 1.024 3,9 57,9 110,1
09/2018 16,6 20,3 23,0 23,5 22,9 28,1 32,2 15,6 52 76 88 1.011 1.018 1.027 2,5 29,0 108,6
08/2018 20,6 22,9 27,1 26,7 26,9 31,7 37,3 16,7 48 68 85 1.011 1.015 1.020 3,0 45,1 16,3
07/2018 20,6 22,2 24,0 26,4 27,8 31,5 37,2 16,6 36 67 77 1.008 1.013 1.018 3,5 40,2 1,3
06/2018 14,9 18,9 21,7 23,1 23,8 28,1 33,2 18,3 45 63 82 1.008 1.013 1.019 3,7 35,4 65,8
05/2018 9,6 14,6 17,6 18,8 18,7 24,3 28,3 18,7 40 63 85 1.008 1.013 1.016 3,5 41,8 27,4
04/2018 8,6 12,2 15,8 16,0 12,6 20,5 26,7 18,1 48 61 85 994 1.012 1.024 6,0 74,0 19,8
Tots els anys disponibles
2018 0,9 14,6 27,1 18,1 7,6 22,8 37,3 36,4 35 66 96 991 1.015 1.032 OSO 5,4 74,0 584,1
Temperatura (°C)
Humitat relativa (%)
Velocitat del vent i ràfega màxima (km/h)
Direcció del vent (°)
Pressió (hPa)
Precipitació (mm)
Nota sobre les dades: s'avisa a l'usuari de la provisionalitat i no oficialitat d'aquestes dades
Logo AVAMET blanc
Web allotjada a Sollutia
Llicència de Creative CommonsLa web d'AVAMET i els seus continguts estan subjectes a una llicència de
Reconeixement - No Comercial - Compartir igual
Properes estacions: Altea - Club Nàutic d'Altea (Soci), Ontinyent - El Pilar (Soci), Ares del Maestrat (Ajuntament Soci), Catadau - L'Altet (Inforatge)     - - - - -      Últimes estacions: Asp - Poliesportiu (Soci), Jacarilla - centro (MeteOrihuela), Elx - Maitino/Vallverda/Velarde/Matola/Ferriol (Soci TiempoElche.com), Orihuela - Playa Flamenca (MeteOrihuela), - - -